Time;durP1;ratioP1;P1;durP2;ratioP2;P2;SDS_P1;SDS_P2;PMS_P1;PMS_P2;Temp;Humidity;BMP_temperature;BMP_pressure;BME280_temperature;BME280_humidity;BME280_pressure;Samples;Min_cycle;Max_cycle;Signal;HPM_P1;HPM_P2
2022/02/02 00:01:42;;;;;;;20.77;4.35;;;5.80;99.90;;;;;;5044152;28;20025;-52
2022/02/02 00:04:11;;;;;;;18.67;3.63;;;5.80;99.90;;;;;;5046499;28;20025;-54
2022/02/02 00:06:44;;;;;;;12.52;3.90;;;5.90;99.90;;;;;;5043053;28;20052;-54
2022/02/02 00:09:14;;;;;;;21.65;3.80;;;5.90;99.90;;;;;;5045847;28;20032;-53
2022/02/02 00:16:51;;;;;;;22.75;5.05;;;6.10;99.90;;;;;;5041912;28;20136;-55
2022/02/02 00:22:03;;;;;;;16.95;4.45;;;6.10;99.90;;;;;;5042963;28;20029;-51
2022/02/02 00:24:40;;;;;;;19.35;3.53;;;6.10;99.90;;;;;;5042487;28;20064;-54
2022/02/02 00:27:09;;;;;;;12.88;3.50;;;6.10;99.90;;;;;;5043879;28;20033;-50
2022/02/02 00:29:43;;;;;;;20.17;5.28;;;6.10;99.90;;;;;;5047970;28;20039;-54
2022/02/02 00:32:18;;;;;;;20.80;3.17;;;6.10;99.90;;;;;;5043615;28;20075;-52
2022/02/02 00:34:44;;;;;;;20.10;4.28;;;6.10;99.90;;;;;;5046800;28;20501;-52
2022/02/02 00:37:10;;;;;;;16.40;5.05;;;6.20;99.90;;;;;;5041278;28;20037;-53
2022/02/02 00:39:35;;;;;;;20.77;5.38;;;6.20;99.90;;;;;;5043726;28;20509;-53
2022/02/02 00:42:02;;;;;;;21.75;3.72;;;6.20;99.90;;;;;;5042329;28;20025;-52
2022/02/02 00:44:28;;;;;;;16.48;3.17;;;6.20;99.90;;;;;;5047540;28;20478;-51
2022/02/02 00:46:55;;;;;;;25.58;4.70;;;6.20;99.90;;;;;;5042517;28;20029;-56
2022/02/02 00:49:21;;;;;;;25.10;6.30;;;6.30;99.90;;;;;;5044579;28;20036;-52
2022/02/02 00:51:48;;;;;;;35.22;5.70;;;6.30;99.90;;;;;;5040106;28;20448;-54
2022/02/02 00:54:17;;;;;;;23.52;4.60;;;6.30;99.90;;;;;;5046344;28;20045;-52
2022/02/02 00:56:43;;;;;;;22.75;4.18;;;6.30;99.90;;;;;;5044935;28;20033;-54
2022/02/02 00:59:09;;;;;;;16.10;5.60;;;6.30;99.90;;;;;;5044361;28;20079;-52
2022/02/02 01:01:35;;;;;;;17.85;4.20;;;6.30;99.90;;;;;;5041980;28;20063;-54
2022/02/02 01:04:00;;;;;;;18.65;3.78;;;6.30;99.90;;;;;;5046302;28;20574;-54
2022/02/02 01:06:29;;;;;;;18.10;3.53;;;6.30;99.90;;;;;;5044803;28;20036;-55
2022/02/02 01:28:10;;;;;;;8.60;1.65;;;6.00;99.90;;;;;;5045515;28;20076;-51
2022/02/02 01:30:36;;;;;;;4.65;1.08;;;5.80;99.90;;;;;;5040767;28;20040;-51
2022/02/02 01:33:01;;;;;;;11.68;1.75;;;5.70;99.90;;;;;;5037532;28;20028;-54
2022/02/02 01:35:27;;;;;;;12.60;1.88;;;5.60;99.90;;;;;;5044041;28;20033;-54
2022/02/02 01:37:53;;;;;;;;;;;5.60;99.90;;;;;;5045440;28;20064;-55
2022/02/02 01:40:33;;;;;;;4.20;0.95;;;5.50;99.90;;;;;;5044290;28;19952;-55
2022/02/02 01:43:07;;;;;;;8.95;1.88;;;5.50;99.90;;;;;;5043744;28;20688;-55
2022/02/02 01:45:38;;;;;;;9.88;1.92;;;5.40;99.90;;;;;;5044550;28;20032;-55
2022/02/02 01:50:59;;;;;;;10.32;1.60;;;5.40;99.90;;;;;;5044580;28;20508;-55
2022/02/02 01:53:41;;;;;;;6.90;1.35;;;5.50;99.90;;;;;;5043287;28;20071;-57
2022/02/02 01:56:10;;;;;;;14.88;1.88;;;5.50;99.90;;;;;;5041333;28;20029;-56
2022/02/02 01:59:00;;;;;;;8.10;2.60;;;5.60;99.90;;;;;;5045776;28;20029;-57
2022/02/02 02:01:26;;;;;;;8.40;1.60;;;5.60;99.90;;;;;;5039751;28;20083;-56
2022/02/02 02:03:51;;;;;;;8.07;1.75;;;5.60;99.90;;;;;;5040719;28;20090;-57
2022/02/02 02:06:18;;;;;;;4.75;0.65;;;5.60;99.90;;;;;;5042942;28;20040;-56
2022/02/02 02:08:44;;;;;;;8.68;1.63;;;5.60;99.90;;;;;;5045245;28;20053;-55
2022/02/02 02:11:15;;;;;;;10.18;1.35;;;5.50;99.90;;;;;;5045273;28;20394;-57
2022/02/02 02:16:07;;;;;;;12.52;4.03;;;5.50;99.90;;;;;;5042481;28;20032;-57
2022/02/02 02:18:32;;;;;;;10.30;1.65;;;5.50;99.90;;;;;;5043218;28;20040;-56
2022/02/02 02:20:58;;;;;;;7.57;1.45;;;5.50;99.90;;;;;;5036310;28;20017;-56
2022/02/02 02:23:24;;;;;;;;;;;5.50;99.90;;;;;;5046187;28;20029;-55
2022/02/02 02:25:50;;;;;;;9.38;1.77;;;5.50;99.90;;;;;;5042574;28;19905;-55
2022/02/02 02:31:31;;;;;;;8.70;1.40;;;5.40;99.90;;;;;;4998886;28;20035;-56
2022/02/02 02:34:21;;;;;;;12.68;2.50;;;5.40;99.90;;;;;;5049747;28;20036;-57
2022/02/02 02:37:07;;;;;;;10.88;1.98;;;5.40;99.90;;;;;;5046805;28;20039;-55
2022/02/02 03:30:19;;;;;;;15.73;3.42;;;5.30;99.90;;;;;;5062069;28;20620;-73
2022/02/02 03:34:33;;;;;;;25.63;4.43;;;5.30;99.90;;;;;;5061892;28;20379;-73
2022/02/02 03:55:23;;;;;;;16.38;4.65;;;5.50;99.90;;;;;;5040457;28;20041;-74
2022/02/02 03:57:57;;;;;;;20.95;5.25;;;5.50;99.90;;;;;;5061120;28;20032;-74
2022/02/02 04:00:32;;;;;;;8.38;2.33;;;5.60;99.90;;;;;;5061079;28;20503;-74
2022/02/02 04:10:45;;;;;;;14.13;4.18;;;5.60;99.90;;;;;;5061210;28;20047;-74
2022/02/02 04:13:22;;;;;;;14.30;3.58;;;5.60;99.90;;;;;;5060938;28;20036;-74
2022/02/02 04:54:22;;;;;;;14.68;2.42;;;5.40;99.90;;;;;;5058703;28;20087;-73
2022/02/02 05:02:44;;;;;;;11.82;2.33;;;5.30;99.90;;;;;;5060643;28;20044;-73
2022/02/02 05:07:40;;;;;;;12.52;2.75;;;5.20;99.90;;;;;;5060437;28;20132;-74
2022/02/02 05:13:33;;;;;;;16.17;3.63;;;5.10;99.90;;;;;;5058153;28;20041;-73
2022/02/02 05:24:53;;;;;;;25.45;4.80;;;5.00;99.90;;;;;;5059154;28;20032;-74
2022/02/02 05:52:53;;;;;;;16.23;2.75;;;5.00;99.90;;;;;;5058071;28;20059;-75
2022/02/02 05:55:18;;;;;;;;;;;5.00;99.90;;;;;;5057454;28;20028;-75
2022/02/02 05:57:46;;;;;;;16.02;3.72;;;5.00;99.90;;;;;;5057063;28;19923;-77
2022/02/02 06:00:13;;;;;;;16.83;3.45;;;5.10;99.90;;;;;;5055791;28;20110;-76
2022/02/02 06:02:41;;;;;;;18.00;4.00;;;5.10;99.90;;;;;;5056072;28;20032;-77
2022/02/02 06:05:08;;;;;;;17.90;3.83;;;5.10;99.90;;;;;;5056230;28;20052;-76
2022/02/02 06:07:40;;;;;;;17.88;4.60;;;5.20;99.90;;;;;;5056891;28;20028;-78
2022/02/02 06:10:08;;;;;;;19.50;4.10;;;5.20;99.90;;;;;;5056836;28;20032;-76
2022/02/02 06:12:34;;;;;;;16.00;3.55;;;5.20;99.90;;;;;;5057341;28;20040;-75
2022/02/02 06:15:07;;;;;;;21.77;3.40;;;5.20;99.90;;;;;;5057923;28;20103;-74
2022/02/02 06:17:39;;;;;;;22.42;4.45;;;5.20;99.90;;;;;;5056262;28;20044;-74
2022/02/02 06:20:06;;;;;;;14.80;4.18;;;5.20;99.90;;;;;;5059169;28;20040;-74
2022/02/02 06:22:32;;;;;;;20.02;4.50;;;5.20;99.90;;;;;;5058268;28;20025;-74
2022/02/02 06:25:24;;;;;;;21.15;4.00;;;5.20;99.90;;;;;;5058907;28;20590;-75
2022/02/02 06:27:58;;;;;;;22.67;4.68;;;5.30;99.90;;;;;;5057213;28;20059;-74
2022/02/02 06:30:26;;;;;;;33.05;5.25;;;5.30;99.90;;;;;;5059492;28;20045;-75
2022/02/02 06:32:53;;;;;;;12.77;2.63;;;5.40;99.90;;;;;;5059042;28;20815;-75
2022/02/02 06:35:20;;;;;;;26.45;3.90;;;5.40;99.90;;;;;;5059225;28;20033;-75
2022/02/02 06:37:46;;;;;;;25.02;3.85;;;5.40;99.90;;;;;;5057482;28;20025;-75
2022/02/02 06:40:15;;;;;;;14.48;3.40;;;5.40;99.90;;;;;;5058641;28;20111;-75
2022/02/02 06:42:44;;;;;;;20.65;4.68;;;5.40;99.90;;;;;;5058349;28;20021;-75
2022/02/02 06:45:12;;;;;;;26.90;4.90;;;5.40;99.90;;;;;;5059600;28;20021;-75
2022/02/02 06:47:39;;;;;;;18.90;5.00;;;5.50;99.90;;;;;;5058750;28;20021;-75
2022/02/02 06:50:15;;;;;;;22.33;3.42;;;5.40;99.90;;;;;;5057686;28;20078;-75
2022/02/02 06:53:18;;;;;;;36.10;8.55;;;5.50;99.90;;;;;;5055377;28;20029;-74
2022/02/02 06:56:08;;;;;;;28.15;5.22;;;5.40;99.90;;;;;;5058911;28;20056;-74
2022/02/02 06:58:46;;;;;;;24.65;5.68;;;5.40;99.90;;;;;;5056953;28;20412;-74
2022/02/02 07:01:37;;;;;;;15.65;3.05;;;5.30;99.90;;;;;;5059193;28;20024;-76
2022/02/02 07:09:26;;;;;;;27.15;5.57;;;5.40;99.90;;;;;;5059320;28;20024;-72
2022/02/02 07:14:38;;;;;;;24.58;4.75;;;5.40;99.90;;;;;;5059199;28;20079;-71
2022/02/02 07:17:32;;;;;;;19.10;3.65;;;5.30;99.90;;;;;;5059348;28;20112;-76
2022/02/02 07:20:12;;;;;;;32.90;4.13;;;5.40;99.90;;;;;;5061676;28;20499;-77
2022/02/02 07:33:14;;;;;;;16.45;4.00;;;5.40;99.90;;;;;;5062319;28;20032;-81
2022/02/02 07:36:11;;;;;;;27.38;3.85;;;5.40;99.90;;;;;;5060471;28;20086;-78
2022/02/02 07:38:55;;;;;;;24.85;3.95;;;5.40;99.90;;;;;;5060891;28;20061;-77
2022/02/02 07:41:27;;;;;;;25.50;4.50;;;5.40;99.90;;;;;;5062561;28;20029;-76
2022/02/02 07:44:04;;;;;;;30.75;5.65;;;5.30;99.90;;;;;;5061433;28;20025;-76
2022/02/02 07:46:32;;;;;;;20.02;4.30;;;5.30;99.90;;;;;;5062351;28;20029;-77
2022/02/02 07:48:58;;;;;;;16.90;3.45;;;5.30;99.90;;;;;;5061805;28;20040;-78
2022/02/02 07:51:27;;;;;;;17.00;3.97;;;5.30;99.90;;;;;;5060566;28;20508;-77
2022/02/02 07:53:56;;;;;;;15.20;3.20;;;5.30;99.90;;;;;;5062533;28;20497;-78
2022/02/02 07:56:27;;;;;;;16.70;3.97;;;5.30;99.90;;;;;;5061281;28;20066;-78
2022/02/02 07:59:09;;;;;;;13.95;3.53;;;5.30;99.90;;;;;;5061668;28;20441;-76
2022/02/02 08:01:35;;;;;;;16.08;3.65;;;5.40;99.90;;;;;;5060700;28;20020;-75
2022/02/02 08:04:00;;;;;;;13.45;2.80;;;5.40;99.90;;;;;;5062223;28;20025;-78
2022/02/02 08:06:27;;;;;;;21.65;4.10;;;5.40;99.90;;;;;;5061471;28;20032;-79
2022/02/02 08:08:52;;;;;;;22.73;4.15;;;5.40;99.90;;;;;;5058584;28;20045;-78
2022/02/02 08:11:28;;;;;;;17.45;3.85;;;5.50;99.90;;;;;;5062325;28;20028;-78
2022/02/02 08:13:57;;;;;;;23.27;3.88;;;5.50;99.90;;;;;;5061882;28;20032;-75
2022/02/02 08:16:23;;;;;;;13.32;3.72;;;5.50;99.90;;;;;;5062197;28;20028;-81
2022/02/02 08:18:51;;;;;;;;;;;5.50;99.90;;;;;;5061687;28;20118;-85
2022/02/02 08:21:17;;;;;;;20.00;4.03;;;5.50;99.90;;;;;;5050005;28;19908;-83
2022/02/02 08:23:43;;;;;;;20.88;3.67;;;5.50;99.90;;;;;;5058596;28;20032;-78
2022/02/02 08:26:14;;;;;;;24.35;4.07;;;5.50;99.90;;;;;;5061100;28;20024;-77
2022/02/02 08:28:41;;;;;;;13.55;3.40;;;5.50;99.90;;;;;;5059165;28;20393;-77
2022/02/02 08:31:06;;;;;;;15.50;2.47;;;5.50;99.90;;;;;;5061368;28;20169;-78
2022/02/02 08:33:37;;;;;;;17.08;3.25;;;5.50;99.90;;;;;;5059683;28;20546;-76
2022/02/02 08:36:05;;;;;;;11.48;2.42;;;5.50;99.90;;;;;;5061083;28;20028;-76
2022/02/02 08:38:41;;;;;;;21.55;3.05;;;5.60;99.90;;;;;;5060593;28;20020;-75
2022/02/02 08:41:24;;;;;;;;;;;5.60;99.90;;;;;;5061290;28;20477;-78
2022/02/02 08:44:06;;;;;;;14.52;3.03;;;5.60;99.90;;;;;;5060601;28;19908;-79
2022/02/02 08:46:37;;;;;;;11.25;3.38;;;5.70;99.90;;;;;;5060627;28;20063;-80
2022/02/02 08:49:06;;;;;;;17.58;2.83;;;5.90;99.90;;;;;;5060956;28;20446;-78
2022/02/02 08:51:40;;;;;;;14.05;2.35;;;5.90;99.90;;;;;;5060344;28;20029;-78
2022/02/02 08:54:27;;;;;;;12.05;1.60;;;6.00;99.90;;;;;;5059363;28;20025;-76
2022/02/02 09:02:03;;;;;;;9.55;2.15;;;6.00;99.90;;;;;;5059799;28;20055;-77
2022/02/02 09:07:13;;;;;;;9.27;2.17;;;6.10;99.90;;;;;;5059464;28;20400;-81
2022/02/02 09:10:05;;;;;;;11.55;3.35;;;6.10;99.90;;;;;;5059378;28;20040;-79
2022/02/02 09:36:21;;;;;;;11.10;2.05;;;6.00;99.90;;;;;;5059355;28;20112;-77
2022/02/02 09:38:46;;;;;;;10.30;2.75;;;6.10;99.90;;;;;;5059721;28;20501;-77
2022/02/02 09:41:28;;;;;;;10.80;2.30;;;6.10;99.90;;;;;;5058694;28;20086;-76
2022/02/02 09:43:58;;;;;;;14.93;4.03;;;6.10;99.90;;;;;;5058648;28;20021;-76
2022/02/02 09:46:29;;;;;;;7.80;1.63;;;6.10;99.90;;;;;;5058280;28;20032;-76
2022/02/02 09:48:59;;;;;;;15.07;3.33;;;6.10;99.90;;;;;;5059265;28;20119;-76
2022/02/02 09:51:31;;;;;;;8.52;2.15;;;6.10;99.90;;;;;;5059061;28;20025;-78
2022/02/02 09:59:19;;;;;;;16.05;4.00;;;6.20;99.90;;;;;;5058589;28;20028;-84
2022/02/02 10:05:00;;;;;;;10.48;3.03;;;6.40;99.90;;;;;;5057335;28;20054;-85
2022/02/02 10:10:22;;;;;;;12.20;2.28;;;6.40;99.90;;;;;;5059848;28;20489;-85
2022/02/02 10:15:30;;;;;;;8.85;2.75;;;6.40;99.90;;;;;;5059193;28;20040;-76
2022/02/02 10:17:57;;;;;;;16.25;3.67;;;6.40;99.90;;;;;;5059262;28;20025;-76
2022/02/02 10:20:25;;;;;;;13.93;4.18;;;6.40;99.90;;;;;;5057810;28;20033;-74
2022/02/02 10:22:54;;;;;;;13.82;2.40;;;6.40;99.90;;;;;;5059192;28;20074;-76
2022/02/02 10:25:24;;;;;;;12.50;2.03;;;6.40;99.90;;;;;;5059155;28;20053;-76
2022/02/02 10:27:50;;;;;;;14.55;3.55;;;6.40;99.90;;;;;;5058636;28;20611;-77
2022/02/02 10:30:17;;;;;;;;;;;6.50;99.90;;;;;;5058921;28;20032;-81
2022/02/02 10:32:48;;;;;;;12.60;1.23;;;6.50;99.90;;;;;;5058308;28;20522;-77
2022/02/02 10:35:34;;;;;;;10.55;2.33;;;6.60;99.90;;;;;;5057816;28;20079;-75
2022/02/02 10:38:01;;;;;;;10.80;1.83;;;6.70;99.90;;;;;;5058843;28;20058;-75
2022/02/02 10:40:45;;;;;;;10.35;2.28;;;6.70;99.90;;;;;;5057669;28;20511;-74
2022/02/02 10:43:27;;;;;;;9.98;2.00;;;6.70;99.90;;;;;;5058854;28;20094;-73
2022/02/02 10:45:52;;;;;;;18.00;2.63;;;6.60;99.90;;;;;;5058703;28;20090;-72
2022/02/02 10:48:35;;;;;;;9.07;1.75;;;6.50;99.90;;;;;;5058657;28;20112;-75
2022/02/02 10:51:08;;;;;;;11.95;2.75;;;6.40;99.90;;;;;;5061644;28;20194;-74
2022/02/02 10:56:34;;;;;;;11.88;1.98;;;6.30;99.90;;;;;;5063212;28;20056;-73
2022/02/02 10:59:17;;;;;;;8.18;1.58;;;6.20;99.90;;;;;;5061730;28;20084;-76
2022/02/02 11:07:01;;;;;;;9.63;1.80;;;6.20;99.90;;;;;;5062619;28;20043;-75
2022/02/02 11:09:28;;;;;;;6.13;1.42;;;6.20;99.90;;;;;;5061272;28;20036;-76
2022/02/02 11:11:56;;;;;;;9.73;2.85;;;6.20;99.90;;;;;;5062224;28;20021;-73
2022/02/02 11:14:26;;;;;;;6.18;1.77;;;6.30;99.90;;;;;;5061865;28;20079;-75
2022/02/02 11:16:59;;;;;;;10.40;2.10;;;6.30;99.90;;;;;;5062866;28;20677;-75
2022/02/02 11:19:31;;;;;;;15.40;2.22;;;6.30;99.90;;;;;;5062511;28;20025;-74
2022/02/02 11:22:30;;;;;;;6.60;1.88;;;6.40;99.90;;;;;;5062669;28;20458;-75
2022/02/02 11:25:02;;;;;;;9.43;1.70;;;6.40;99.90;;;;;;5063042;28;20051;-75
2022/02/02 11:27:45;;;;;;;16.02;2.00;;;6.50;99.90;;;;;;5061309;28;20028;-75
2022/02/02 11:30:22;;;;;;;20.67;2.65;;;6.60;99.90;;;;;;5062911;28;20054;-75
2022/02/02 11:32:53;;;;;;;10.95;2.50;;;6.60;99.90;;;;;;5062152;28;20029;-75
2022/02/02 11:35:46;;;;;;;10.35;2.15;;;6.70;99.90;;;;;;5062768;28;20025;-74
2022/02/02 11:38:20;;;;;;;23.30;4.68;;;6.70;99.90;;;;;;5061573;28;20028;-74
2022/02/02 11:41:11;;;;;;;18.02;2.45;;;6.70;99.90;;;;;;5061141;28;20496;-74
2022/02/02 11:46:54;;;;;;;7.97;3.38;;;6.80;99.90;;;;;;5061718;28;20033;-77
2022/02/02 11:49:22;;;;;;;10.02;1.50;;;6.70;99.60;;;;;;5061344;28;20037;-74
2022/02/02 11:51:53;;;;;;;10.60;3.25;;;6.60;99.90;;;;;;5061090;28;20485;-74
2022/02/02 11:54:42;;;;;;;7.97;1.83;;;6.60;99.90;;;;;;5061396;28;20393;-80
2022/02/02 11:57:35;;;;;;;5.95;2.13;;;6.60;99.90;;;;;;5060660;28;20043;-77
2022/02/02 12:00:11;;;;;;;14.45;2.13;;;6.70;99.80;;;;;;5060319;28;20374;-73
2022/02/02 12:08:01;;;;;;;9.90;1.65;;;6.80;99.90;;;;;;5061908;28;20021;-74
2022/02/02 12:57:54;;;;;;;5.70;0.90;;;6.70;99.90;;;;;;5060227;28;20032;-75
2022/02/02 13:00:34;;;;;;;11.93;2.55;;;6.70;99.90;;;;;;5060067;28;20021;-75
2022/02/02 13:03:01;;;;;;;12.55;1.30;;;6.70;99.90;;;;;;5059291;28;20095;-76
2022/02/02 13:05:26;;;;;;;;;;;6.70;99.90;;;;;;5060491;28;20025;-76
2022/02/02 13:07:57;;;;;;;9.18;1.73;;;6.70;99.90;;;;;;5060866;28;19935;-76
2022/02/02 13:10:24;;;;;;;11.95;2.55;;;6.80;99.90;;;;;;5060592;28;20265;-73
2022/02/02 13:12:54;;;;;;;9.07;2.00;;;6.70;99.90;;;;;;5059174;28;20390;-74
2022/02/02 13:21:14;;;;;;;10.07;1.75;;;7.10;99.90;;;;;;5059050;28;20024;-80
2022/02/02 13:26:26;;;;;;;8.77;1.38;;;7.40;99.90;;;;;;5060400;28;20029;-77
2022/02/02 13:34:28;;;;;;;7.68;1.50;;;7.30;99.90;;;;;;5057985;28;20033;-77
2022/02/02 13:51:08;;;;;;;7.95;1.33;;;7.10;98.00;;;;;;5058969;28;20033;-83
2022/02/02 14:01:14;;;;;;;6.90;1.40;;;7.00;99.30;;;;;;5059192;28;20024;-76
2022/02/02 14:33:32;;;;;;;4.82;1.55;;;5.20;99.90;;;;;;5058839;28;20524;-76
2022/02/02 14:36:01;;;;;;;3.38;0.80;;;5.30;99.90;;;;;;5059930;28;20025;-75
2022/02/02 14:38:33;;;;;;;4.50;1.00;;;5.40;99.90;;;;;;5058416;28;20060;-76
2022/02/02 14:41:09;;;;;;;4.25;0.77;;;5.50;99.90;;;;;;5058223;28;20462;-77
2022/02/02 14:43:41;;;;;;;7.28;1.27;;;5.50;99.90;;;;;;5059178;28;20040;-77
2022/02/02 14:46:10;;;;;;;8.57;1.20;;;5.60;99.90;;;;;;5058935;28;20028;-77
2022/02/02 14:48:46;;;;;;;9.93;1.00;;;5.60;99.90;;;;;;5058753;28;20119;-74
2022/02/02 14:51:35;;;;;;;5.20;0.98;;;5.70;99.90;;;;;;5058660;28;20024;-74
2022/02/02 14:54:24;;;;;;;8.40;1.33;;;5.70;99.90;;;;;;5059181;28;20047;-74
2022/02/02 15:24:23;;;;;;;5.85;2.08;;;5.10;99.90;;;;;;5057593;28;20032;-73
2022/02/02 15:29:58;;;;;;;13.45;1.35;;;5.10;99.90;;;;;;5056419;28;20059;-73
2022/02/02 15:32:26;;;;;;;10.02;1.42;;;5.00;99.90;;;;;;5058130;28;20028;-73
2022/02/02 15:34:56;;;;;;;6.85;1.27;;;5.00;99.90;;;;;;5057568;28;20033;-73
2022/02/02 15:40:05;;;;;;;9.10;1.73;;;5.00;99.90;;;;;;5060806;28;20524;-73
2022/02/02 15:58:28;;;;;;;12.20;1.73;;;4.60;99.90;;;;;;5060256;28;20531;-74
2022/02/02 16:03:31;;;;;;;5.03;1.13;;;4.60;99.90;;;;;;5060818;28;20397;-74
2022/02/02 16:06:04;;;;;;;9.73;2.20;;;4.60;99.90;;;;;;5060617;28;20063;-74
2022/02/02 16:08:30;;;;;;;5.85;1.30;;;4.60;99.90;;;;;;5059353;28;20112;-74
2022/02/02 16:16:10;;;;;;;11.70;1.98;;;4.60;99.90;;;;;;5060293;28;20134;-72
2022/02/02 16:18:47;;;;;;;8.48;1.45;;;4.60;99.90;;;;;;5061425;28;20036;-73
2022/02/02 16:35:28;;;;;;;7.78;1.13;;;4.50;99.90;;;;;;5059963;28;20033;-73
2022/02/02 16:37:56;;;;;;;6.47;2.30;;;4.50;99.90;;;;;;5060540;28;20012;-72
2022/02/02 16:40:30;;;;;;;7.50;1.40;;;4.50;99.90;;;;;;5060065;28;20032;-72
2022/02/02 16:45:22;;;;;;;9.27;1.00;;;4.50;99.90;;;;;;5060913;28;20486;-73
2022/02/02 16:47:49;;;;;;;10.23;1.92;;;4.50;99.90;;;;;;5060620;28;20039;-73
2022/02/02 16:50:19;;;;;;;9.23;1.55;;;4.40;99.90;;;;;;5059276;28;20394;-73
2022/02/02 16:52:48;;;;;;;11.77;1.33;;;4.40;99.90;;;;;;5059931;28;20039;-73
2022/02/02 16:55:27;;;;;;;8.45;2.00;;;4.30;99.90;;;;;;5060609;28;20029;-74
2022/02/02 17:24:15;;;;;;;9.68;1.48;;;4.40;99.90;;;;;;5056873;28;20131;-73
2022/02/02 17:33:30;;;;;;;11.48;2.50;;;4.00;99.90;;;;;;5060725;28;20036;-73
2022/02/02 17:36:16;;;;;;;12.82;2.83;;;4.00;99.90;;;;;;5058417;28;20028;-72
2022/02/02 17:41:21;;;;;;;8.02;2.10;;;3.90;99.90;;;;;;5058398;28;20092;-73
2022/02/02 17:44:13;;;;;;;17.55;1.80;;;3.90;99.90;;;;;;5058430;28;20082;-72
2022/02/02 17:56:25;;;;;;;10.80;1.70;;;3.90;99.90;;;;;;5060273;28;20063;-72
2022/02/02 18:19:13;;;;;;;7.97;2.15;;;3.80;99.90;;;;;;5059459;28;20580;-72
2022/02/02 18:21:39;;;;;;;15.57;3.92;;;3.80;99.90;;;;;;5060418;28;20037;-73
2022/02/02 18:26:53;;;;;;;12.75;2.67;;;3.80;99.90;;;;;;5058765;28;20031;-73
2022/02/02 18:29:37;;;;;;;11.13;3.13;;;3.80;99.90;;;;;;5058136;28;20094;-73
2022/02/02 18:32:47;;;;;;;22.30;4.63;;;3.80;99.90;;;;;;5059203;28;20024;-73
2022/02/02 18:35:00;;;;;;;10.52;2.78;;;3.70;99.90;;;;;;5057208;28;20429;-73
2022/02/02 18:41:10;;;;;;;12.45;3.97;;;3.70;99.90;;;;;;5059383;28;20115;-74
2022/02/02 18:43:29;;;;;;;17.67;3.00;;;3.70;99.90;;;;;;5057376;28;20486;-73
2022/02/02 18:46:19;;;;;;;12.95;2.72;;;3.70;99.90;;;;;;5057592;28;20044;-74
2022/02/02 18:49:16;;;;;;;10.30;2.28;;;3.70;99.90;;;;;;5057758;28;20031;-74
2022/02/02 18:51:58;;;;;;;6.13;2.03;;;3.70;99.90;;;;;;5054978;28;20044;-74
2022/02/02 19:00:09;;;;;;;17.33;2.78;;;3.50;99.90;;;;;;5039910;28;20098;-72
2022/02/02 19:03:03;;;;;;;14.32;2.28;;;3.50;99.90;;;;;;5059146;28;20009;-73
2022/02/02 19:05:59;;;;;;;20.35;3.58;;;3.40;99.90;;;;;;5041632;28;20396;-73
2022/02/02 19:39:45;;;;;;;16.25;3.22;;;3.40;99.90;;;;;;5061667;28;20040;-73
2022/02/02 19:53:15;;;;;;;11.35;3.10;;;3.20;99.90;;;;;;5060627;28;20439;-73
2022/02/02 19:55:35;;;;;;;14.93;4.00;;;3.20;99.90;;;;;;5062640;28;20044;-73
2022/02/02 20:11:35;;;;;;;16.60;3.47;;;3.10;99.90;;;;;;5060249;28;20401;-74
2022/02/02 20:14:01;;;;;;;12.23;3.40;;;3.10;99.90;;;;;;5061677;28;20040;-74
2022/02/02 20:16:27;;;;;;;15.88;5.28;;;3.00;99.90;;;;;;5062285;28;20028;-74
2022/02/02 20:18:56;;;;;;;13.27;3.47;;;3.00;99.90;;;;;;5061070;28;20100;-74
2022/02/02 20:21:24;;;;;;;12.30;2.83;;;3.00;99.90;;;;;;5060002;28;20028;-74
2022/02/02 20:23:50;;;;;;;9.32;3.40;;;3.00;99.90;;;;;;5061181;28;20156;-74
2022/02/02 20:26:20;;;;;;;14.13;3.22;;;3.00;99.90;;;;;;5061199;28;20036;-74
2022/02/02 20:28:46;;;;;;;15.68;3.78;;;3.00;99.90;;;;;;5060398;28;20025;-73
2022/02/02 20:31:12;;;;;;;10.63;2.50;;;3.00;99.90;;;;;;5059906;28;20051;-74
2022/02/02 20:33:38;;;;;;;9.55;2.60;;;3.00;99.90;;;;;;5059633;28;20412;-74
2022/02/02 20:36:04;;;;;;;18.17;4.18;;;3.00;99.90;;;;;;5063699;28;20484;-74
2022/02/02 20:38:29;;;;;;;16.40;4.47;;;3.00;99.90;;;;;;5061474;28;20059;-74
2022/02/02 20:40:55;;;;;;;10.60;2.78;;;3.00;99.90;;;;;;5062178;28;20074;-74
2022/02/02 20:43:32;;;;;;;17.27;3.50;;;3.00;99.90;;;;;;5061379;28;20029;-74
2022/02/02 21:05:22;;;;;;;16.60;3.65;;;3.40;99.90;;;;;;5060058;28;20588;-74
2022/02/02 21:10:26;;;;;;;15.57;3.08;;;3.40;99.90;;;;;;5045568;28;20057;-67
2022/02/02 21:15:38;;;;;;;26.33;4.03;;;3.30;99.90;;;;;;5049216;28;20452;-68
2022/02/02 21:18:09;;;;;;;21.25;4.95;;;3.30;99.90;;;;;;5046113;28;20115;-69
2022/02/02 21:20:43;;;;;;;8.50;4.00;;;3.30;99.90;;;;;;5048161;28;20111;-69
2022/02/02 21:23:26;;;;;;;17.55;3.75;;;3.20;99.90;;;;;;5047749;28;20028;-69
2022/02/02 21:28:34;;;;;;;11.43;3.45;;;3.20;99.90;;;;;;5049294;28;20452;-69
2022/02/02 21:31:00;;;;;;;12.77;4.93;;;3.20;99.90;;;;;;5047991;28;20025;-68
2022/02/02 21:33:26;;;;;;;13.13;4.60;;;3.10;99.90;;;;;;5047476;28;20086;-69
2022/02/02 21:35:53;;;;;;;15.90;3.95;;;3.10;99.90;;;;;;5043973;28;20091;-69
2022/02/02 21:38:28;;;;;;;18.60;4.57;;;3.10;99.90;;;;;;5045486;28;20063;-69
2022/02/02 21:40:57;;;;;;;30.23;5.40;;;3.10;99.90;;;;;;5045203;28;20021;-68
2022/02/02 21:43:24;;;;;;;13.77;3.65;;;3.00;99.90;;;;;;5047829;28;20094;-68
2022/02/02 21:45:49;;;;;;;14.75;3.88;;;3.00;99.90;;;;;;5045927;28;20117;-69
2022/02/02 21:48:15;;;;;;;14.38;3.28;;;3.00;99.90;;;;;;5046918;28;20112;-69
2022/02/02 21:51:05;;;;;;;10.02;3.50;;;2.90;99.90;;;;;;5045933;28;20505;-69
2022/02/02 21:53:30;;;;;;;14.63;3.63;;;2.90;99.90;;;;;;5044779;28;20461;-69
2022/02/02 21:55:55;;;;;;;10.27;3.80;;;3.00;99.90;;;;;;5045851;28;20068;-69
2022/02/02 21:58:21;;;;;;;24.15;4.07;;;2.90;99.90;;;;;;5046440;28;20120;-69
2022/02/02 22:00:47;;;;;;;14.82;5.68;;;2.90;99.90;;;;;;5045237;28;20029;-69
2022/02/02 22:03:12;;;;;;;8.38;2.95;;;3.00;99.90;;;;;;5046104;28;20025;-70
2022/02/02 22:05:39;;;;;;;13.98;3.65;;;3.00;99.90;;;;;;5046413;28;20474;-69
2022/02/02 22:08:10;;;;;;;12.15;3.63;;;3.00;99.90;;;;;;5047306;28;20090;-69
2022/02/02 22:10:37;;;;;;;13.40;4.22;;;3.00;99.90;;;;;;5045225;28;20749;-69
2022/02/02 22:13:03;;;;;;;14.73;5.90;;;2.90;99.90;;;;;;5047136;28;20210;-69
2022/02/02 22:15:30;;;;;;;;;;;2.90;99.90;;;;;;5047447;28;20033;-69
2022/02/02 22:17:56;;;;;;;18.58;3.92;;;2.90;99.90;;;;;;5045954;28;19913;-69
2022/02/02 22:20:22;;;;;;;7.88;2.28;;;2.90;99.90;;;;;;5045991;28;20079;-69
2022/02/02 22:22:48;;;;;;;10.52;3.05;;;2.80;99.90;;;;;;5046008;28;20543;-69
2022/02/02 22:25:15;;;;;;;17.05;3.78;;;2.80;99.90;;;;;;5047342;28;20119;-68
2022/02/02 22:27:41;;;;;;;14.70;4.70;;;2.80;99.90;;;;;;5046523;28;20036;-70
2022/02/02 22:30:08;;;;;;;13.30;3.15;;;2.80;99.90;;;;;;5044671;28;20029;-68
2022/02/02 22:32:33;;;;;;;13.57;3.72;;;2.80;99.90;;;;;;5047267;28;20043;-68
2022/02/02 22:34:59;;;;;;;19.38;3.42;;;2.70;99.90;;;;;;5046066;28;20116;-68
2022/02/02 22:37:25;;;;;;;18.67;6.53;;;2.70;99.90;;;;;;5045797;28;20044;-69
2022/02/02 22:39:52;;;;;;;9.60;3.33;;;2.70;99.90;;;;;;5045755;28;20025;-69
2022/02/02 22:42:21;;;;;;;10.55;3.70;;;2.60;99.90;;;;;;5046717;28;20171;-69
2022/02/02 22:44:48;;;;;;;13.00;5.03;;;2.60;99.90;;;;;;5044302;28;20044;-69
2022/02/02 22:47:15;;;;;;;19.23;4.30;;;2.60;99.90;;;;;;5046798;28;20086;-69
2022/02/02 22:49:44;;;;;;;10.82;3.70;;;2.60;99.90;;;;;;5050293;28;20036;-70
2022/02/02 22:52:11;;;;;;;16.75;4.07;;;2.50;99.90;;;;;;5048914;28;20048;-69
2022/02/02 22:54:39;;;;;;;13.98;5.70;;;2.50;99.90;;;;;;5051143;28;20048;-69
2022/02/02 22:57:05;;;;;;;17.00;5.07;;;2.50;99.90;;;;;;5051420;28;20083;-70
2022/02/02 22:59:30;;;;;;;;;;;2.40;99.90;;;;;;5049688;28;20021;-70
2022/02/02 23:02:03;;;;;;;16.33;5.18;;;2.40;99.90;;;;;;5050299;28;19916;-70
2022/02/02 23:04:29;;;;;;;18.45;6.07;;;2.40;99.90;;;;;;5050775;28;20056;-68
2022/02/02 23:07:01;;;;;;;22.23;5.60;;;2.40;99.90;;;;;;5051132;28;20485;-70
2022/02/02 23:09:26;;;;;;;17.75;5.65;;;2.30;99.90;;;;;;5049400;28;20037;-69
2022/02/02 23:11:52;;;;;;;19.77;4.60;;;2.30;99.90;;;;;;5050958;28;20094;-69
2022/02/02 23:14:23;;;;;;;18.33;3.50;;;2.30;99.90;;;;;;5050139;28;20040;-69
2022/02/02 23:16:50;;;;;;;15.68;3.67;;;2.30;99.90;;;;;;5049674;28;20039;-70
2022/02/02 23:19:16;;;;;;;17.85;5.88;;;2.30;99.90;;;;;;5050546;28;20028;-70
2022/02/02 23:21:44;;;;;;;11.23;3.53;;;2.30;99.90;;;;;;5049639;28;20464;-70
2022/02/02 23:24:12;;;;;;;16.30;4.18;;;2.30;99.90;;;;;;5049417;28;20035;-69
2022/02/02 23:26:39;;;;;;;12.50;4.95;;;2.30;99.90;;;;;;5050458;28;20111;-70
2022/02/02 23:29:08;;;;;;;18.23;4.95;;;2.30;99.90;;;;;;5049635;28;20033;-69
2022/02/02 23:31:34;;;;;;;16.58;4.20;;;2.30;99.90;;;;;;5048356;28;20032;-70
2022/02/02 23:34:00;;;;;;;12.27;3.08;;;2.30;99.90;;;;;;5050373;28;20036;-69
2022/02/02 23:36:25;;;;;;;15.27;4.38;;;2.30;99.90;;;;;;5048693;28;20029;-70
2022/02/02 23:38:51;;;;;;;12.10;3.22;;;2.30;99.90;;;;;;5048603;28;20060;-69
2022/02/02 23:42:09;;;;;;;12.77;4.35;;;2.20;99.90;;;;;;5050008;28;20392;-69